createdAt,value
2022-09-15T00:00:25.199Z,19.36
2022-09-15T00:01:27.437Z,19.47
2022-09-15T00:02:29.178Z,19.48
2022-09-15T00:03:30.926Z,19.44
2022-09-15T00:04:32.680Z,19.42
2022-09-15T00:05:34.367Z,19.46
2022-09-15T00:06:36.646Z,19.39
2022-09-15T00:07:38.603Z,19.30
2022-09-15T00:08:40.905Z,19.43
2022-09-15T00:09:42.596Z,19.44
2022-09-15T00:10:50.122Z,19.37
2022-09-15T00:11:51.983Z,19.46
2022-09-15T00:12:54.052Z,19.50
2022-09-15T00:13:57.796Z,19.47
2022-09-15T00:14:59.944Z,19.22
2022-09-15T00:16:02.052Z,19.30
2022-09-15T00:17:03.804Z,19.35
2022-09-15T00:18:06.492Z,19.33
2022-09-15T00:19:08.284Z,19.35
2022-09-15T00:20:10.543Z,19.37
2022-09-15T00:21:16.433Z,19.38
2022-09-15T00:22:19.953Z,19.36
2022-09-15T00:23:21.927Z,19.21
2022-09-15T00:24:23.652Z,19.23
2022-09-15T00:25:25.332Z,19.11
2022-09-15T00:26:28.867Z,19.11
2022-09-15T00:27:32.069Z,19.11
2022-09-15T00:28:34.947Z,19.06
2022-09-15T00:29:36.729Z,19.10
2022-09-15T00:30:47.098Z,19.13
2022-09-15T00:31:48.874Z,19.18
2022-09-15T00:32:50.628Z,19.10
2022-09-15T00:33:55.918Z,19.20
2022-09-15T00:34:57.769Z,19.17
2022-09-15T00:36:03.714Z,19.04
2022-09-15T00:37:05.781Z,19.08
2022-09-15T00:38:09.201Z,19.09
2022-09-15T00:39:10.863Z,19.15
2022-09-15T00:40:12.642Z,19.08
2022-09-15T00:41:17.204Z,19.17
2022-09-15T00:42:21.427Z,19.18
2022-09-15T00:43:46.272Z,19.20
2022-09-15T00:44:55.958Z,19.19
2022-09-15T00:45:57.703Z,19.15
2022-09-15T00:47:18.371Z,18.94
2022-09-15T00:48:22.733Z,18.98
2022-09-15T00:49:33.937Z,19.03
2022-09-15T00:50:37.753Z,19.07
2022-09-15T00:51:54.765Z,19.08
2022-09-15T00:52:59.538Z,18.90
2022-09-15T00:54:04.878Z,19.01
2022-09-15T00:55:11.951Z,19.12
2022-09-15T00:56:15.809Z,19.14
2022-09-15T00:57:42.982Z,19.08
2022-09-15T00:58:57.599Z,19.14
2022-09-15T01:00:00.697Z,19.09
2022-09-15T01:01:07.627Z,19.19
2022-09-15T01:02:23.659Z,19.06
2022-09-15T01:03:27.333Z,19.24
2022-09-15T01:04:29.151Z,19.25
2022-09-15T01:05:46.514Z,19.16
2022-09-15T01:06:54.231Z,19.25
2022-09-15T01:08:11.283Z,19.08
2022-09-15T01:09:24.244Z,19.08
2022-09-15T01:10:31.462Z,18.76
2022-09-15T01:11:33.802Z,18.72
2022-09-15T01:12:35.945Z,18.68
2022-09-15T01:13:37.638Z,18.83
2022-09-15T01:14:39.324Z,18.90
2022-09-15T01:17:47.833Z,18.99
2022-09-15T01:19:40.424Z,19.01
2022-09-15T01:21:12.958Z,19.01
2022-09-15T01:22:41.938Z,19.03
2022-09-15T01:24:16.153Z,19.07
2022-09-15T01:25:24.024Z,19.09
2022-09-15T01:26:44.301Z,19.08
2022-09-15T01:28:04.484Z,18.99
2022-09-15T01:29:24.856Z,19.00
2022-09-15T01:30:27.149Z,18.95
2022-09-15T01:31:59.822Z,19.02
2022-09-15T01:33:10.112Z,19.03
2022-09-15T01:34:18.186Z,19.02
2022-09-15T01:35:33.724Z,19.00
2022-09-15T01:36:47.242Z,19.04
2022-09-15T01:38:27.402Z,19.01
2022-09-15T01:39:35.762Z,18.94
2022-09-15T01:40:44.939Z,19.01
2022-09-15T01:42:16.919Z,18.97
2022-09-15T01:43:22.095Z,19.01
2022-09-15T01:44:29.365Z,19.01
2022-09-15T01:45:34.022Z,18.93
2022-09-15T01:46:48.765Z,18.89
2022-09-15T01:47:54.294Z,18.91
2022-09-15T01:48:59.518Z,18.92
2022-09-15T01:50:20.685Z,18.92
2022-09-15T01:51:25.817Z,18.77
2022-09-15T01:52:29.228Z,18.59
2022-09-15T01:53:30.926Z,18.86
2022-09-15T01:54:42.612Z,18.82
2022-09-15T01:55:54.450Z,18.81
2022-09-15T01:56:57.319Z,18.81
2022-09-15T01:57:59.741Z,18.81
2022-09-15T01:59:01.495Z,18.80
2022-09-15T02:00:04.429Z,18.78
2022-09-15T02:01:14.989Z,18.79
2022-09-15T02:02:39.558Z,18.72
2022-09-15T02:03:58.997Z,18.80
2022-09-15T02:05:16.641Z,18.81
2022-09-15T02:06:29.798Z,18.82
2022-09-15T02:07:51.077Z,18.71
2022-09-15T02:08:58.934Z,18.72
2022-09-15T02:10:12.551Z,18.70
2022-09-15T02:11:20.452Z,18.68
2022-09-15T02:12:34.044Z,18.59
2022-09-15T02:13:49.085Z,18.54
2022-09-15T02:15:08.327Z,18.50
2022-09-15T02:16:20.178Z,18.49
2022-09-15T02:17:24.063Z,18.46
2022-09-15T02:18:34.915Z,18.44
2022-09-15T02:19:41.813Z,18.39
2022-09-15T02:20:48.670Z,18.38
2022-09-15T02:21:57.878Z,18.32
2022-09-15T02:23:08.327Z,18.44
2022-09-15T02:24:18.792Z,18.33
2022-09-15T02:25:28.793Z,18.36
2022-09-15T02:26:33.620Z,18.36
2022-09-15T02:27:46.583Z,18.26
2022-09-15T02:28:50.713Z,18.36
2022-09-15T02:29:56.355Z,18.33
2022-09-15T02:30:59.455Z,18.35
2022-09-15T02:32:07.056Z,18.37
2022-09-15T02:33:14.597Z,18.34
2022-09-15T02:34:21.266Z,18.39
2022-09-15T02:35:25.352Z,18.41
2022-09-15T02:36:29.332Z,18.41
2022-09-15T02:37:31.215Z,18.47
2022-09-15T02:38:39.597Z,18.48
2022-09-15T02:39:46.287Z,18.50
2022-09-15T02:40:48.399Z,18.45
2022-09-15T02:41:50.120Z,18.49
2022-09-15T02:43:03.388Z,18.50
2022-09-15T02:44:05.096Z,18.46
2022-09-15T02:45:07.406Z,18.39
2022-09-15T02:46:09.190Z,18.46
2022-09-15T02:47:11.227Z,18.46
2022-09-15T02:48:13.181Z,18.49
2022-09-15T02:49:15.124Z,18.46
2022-09-15T02:50:17.996Z,18.32
2022-09-15T02:51:19.877Z,18.46
2022-09-15T02:52:21.878Z,18.38
2022-09-15T02:53:23.765Z,18.43
2022-09-15T02:54:25.470Z,18.35
2022-09-15T02:55:30.239Z,18.32
2022-09-15T02:56:31.950Z,18.39
2022-09-15T02:57:33.640Z,18.39
2022-09-15T02:58:35.740Z,18.40
2022-09-15T02:59:56.514Z,18.41
2022-09-15T03:00:58.302Z,18.43
2022-09-15T03:02:00.486Z,18.40
2022-09-15T03:03:02.227Z,18.40
2022-09-15T03:04:04.197Z,18.39
2022-09-15T03:05:07.622Z,18.31
2022-09-15T03:06:20.079Z,18.23
2022-09-15T03:07:21.819Z,18.33
2022-09-15T03:08:23.641Z,18.33
2022-09-15T03:09:25.361Z,18.29
2022-09-15T03:10:27.108Z,18.27
2022-09-15T03:11:30.342Z,18.27
2022-09-15T03:12:32.405Z,18.09
2022-09-15T03:13:34.149Z,18.21
2022-09-15T03:14:36.108Z,18.07
2022-09-15T03:15:37.796Z,17.92
2022-09-15T03:16:40.763Z,18.12
2022-09-15T03:17:44.867Z,18.15
2022-09-15T03:18:47.007Z,18.19
2022-09-15T03:19:49.868Z,18.22
2022-09-15T03:20:56.857Z,18.24
2022-09-15T03:21:58.540Z,18.26
2022-09-15T03:23:00.186Z,18.17
2022-09-15T03:24:02.203Z,18.26
2022-09-15T03:25:05.660Z,18.20
2022-09-15T03:26:08.960Z,18.16
2022-09-15T03:27:10.658Z,18.20
2022-09-15T03:28:12.437Z,18.15
2022-09-15T03:29:14.418Z,18.13
2022-09-15T03:30:16.154Z,18.19
2022-09-15T03:31:17.937Z,18.23
2022-09-15T03:32:20.061Z,18.17
2022-09-15T03:33:22.864Z,18.22
2022-09-15T03:34:24.544Z,18.16
2022-09-15T03:35:26.229Z,18.20
2022-09-15T03:36:27.905Z,18.21
2022-09-15T03:37:29.657Z,18.15
2022-09-15T03:38:31.707Z,18.19
2022-09-15T03:39:33.825Z,18.21
2022-09-15T03:40:36.234Z,18.17
2022-09-15T03:41:37.947Z,18.19
2022-09-15T03:42:39.661Z,18.23
2022-09-15T03:43:41.724Z,18.11
2022-09-15T03:44:43.449Z,17.94
2022-09-15T03:45:45.162Z,17.79
2022-09-15T03:46:46.912Z,17.75
2022-09-15T03:47:48.836Z,17.75
2022-09-15T03:48:50.770Z,17.67
2022-09-15T03:49:52.449Z,17.64
2022-09-15T03:50:54.314Z,17.61
2022-09-15T03:51:57.493Z,17.75
2022-09-15T03:53:00.900Z,17.66
2022-09-15T03:54:03.249Z,17.86
2022-09-15T03:55:05.270Z,17.85
2022-09-15T03:56:09.062Z,17.90
2022-09-15T03:57:11.441Z,17.93
2022-09-15T03:58:13.831Z,17.95
2022-09-15T03:59:19.021Z,17.95
2022-09-15T04:00:21.858Z,17.93
2022-09-15T04:01:24.278Z,17.90
2022-09-15T04:02:26.147Z,17.87
2022-09-15T04:03:27.887Z,17.89
2022-09-15T04:04:29.742Z,17.87
2022-09-15T04:05:31.449Z,17.82
2022-09-15T04:06:33.817Z,17.80
2022-09-15T04:07:35.483Z,17.76
2022-09-15T04:08:37.528Z,17.87
2022-09-15T04:09:39.237Z,17.84
2022-09-15T04:10:41.370Z,17.87
2022-09-15T04:11:43.215Z,17.86
2022-09-15T04:12:44.878Z,17.87
2022-09-15T04:13:47.355Z,17.79
2022-09-15T04:14:50.094Z,17.93
2022-09-15T04:16:03.300Z,17.96
2022-09-15T04:17:05.105Z,17.96
2022-09-15T04:18:07.064Z,17.96
2022-09-15T04:19:09.039Z,17.98
2022-09-15T04:20:12.465Z,18.02
2022-09-15T04:21:17.638Z,18.04
2022-09-15T04:22:20.464Z,18.07
2022-09-15T04:23:22.125Z,17.99
2022-09-15T04:24:23.794Z,18.12
2022-09-15T04:25:27.981Z,18.15
2022-09-15T04:26:32.503Z,18.19
2022-09-15T04:27:36.055Z,18.25
2022-09-15T04:28:38.478Z,18.29
2022-09-15T04:29:40.171Z,18.19
2022-09-15T04:30:42.030Z,18.15
2022-09-15T04:31:43.842Z,18.23
2022-09-15T04:32:45.819Z,18.29
2022-09-15T04:33:48.073Z,18.35
2022-09-15T04:34:49.771Z,18.39
2022-09-15T04:36:02.045Z,18.42
2022-09-15T04:37:04.006Z,18.49
2022-09-15T04:38:06.446Z,18.55
2022-09-15T04:39:08.323Z,18.61
2022-09-15T04:40:10.593Z,18.65
2022-09-15T04:41:14.227Z,18.71
2022-09-15T04:42:16.223Z,18.77
2022-09-15T04:43:17.964Z,18.81
2022-09-15T04:44:19.639Z,18.87
2022-09-15T04:45:21.647Z,19.02
2022-09-15T04:46:23.374Z,19.11
2022-09-15T04:47:25.170Z,19.20
2022-09-15T04:48:27.179Z,19.25
2022-09-15T04:49:29.111Z,19.38
2022-09-15T04:50:32.397Z,19.45
2022-09-15T04:51:34.090Z,19.62
2022-09-15T04:52:35.883Z,19.71
2022-09-15T04:53:37.992Z,19.81
2022-09-15T04:54:40.079Z,19.91
2022-09-15T04:55:42.427Z,19.92
2022-09-15T04:56:44.076Z,20.02
2022-09-15T04:57:46.831Z,20.11
2022-09-15T04:58:51.946Z,20.37
2022-09-15T04:59:53.603Z,20.50
2022-09-15T05:00:55.408Z,20.65
2022-09-15T05:01:57.420Z,20.82
2022-09-15T05:03:00.160Z,20.93
2022-09-15T05:04:06.449Z,21.05
2022-09-15T05:05:08.447Z,21.23
2022-09-15T05:06:12.504Z,21.32
2022-09-15T05:07:14.545Z,21.55
2022-09-15T05:08:16.924Z,21.79
2022-09-15T05:09:18.638Z,22.03
2022-09-15T05:10:20.694Z,22.21
2022-09-15T05:11:23.922Z,22.48
2022-09-15T05:12:25.561Z,22.66
2022-09-15T05:13:27.738Z,22.84
2022-09-15T05:14:30.229Z,23.02
2022-09-15T05:15:31.902Z,23.25
2022-09-15T05:16:34.993Z,23.40
2022-09-15T05:17:36.987Z,23.69
2022-09-15T05:18:40.128Z,23.94
2022-09-15T05:19:41.954Z,24.14
2022-09-15T05:20:43.616Z,24.37
2022-09-15T05:21:45.300Z,24.58
2022-09-15T05:22:47.045Z,24.79
2022-09-15T05:23:50.458Z,24.98
2022-09-15T05:24:52.219Z,25.16
2022-09-15T05:25:58.334Z,25.35
2022-09-15T05:27:00.261Z,25.52
2022-09-15T05:28:02.541Z,25.65
2022-09-15T05:29:04.641Z,25.82
2022-09-15T05:30:35.209Z,26.03
2022-09-15T05:31:32.481Z,26.27
2022-09-15T05:32:34.211Z,26.44
2022-09-15T05:33:36.289Z,26.58
2022-09-15T05:34:37.934Z,26.68
2022-09-15T05:35:39.657Z,26.76
2022-09-15T05:36:41.577Z,26.84
2022-09-15T05:37:45.348Z,26.98
2022-09-15T05:38:47.502Z,27.16
2022-09-15T05:39:49.376Z,27.31
2022-09-15T05:40:51.440Z,27.41
2022-09-15T05:41:53.133Z,27.67
2022-09-15T05:42:54.865Z,27.72
2022-09-15T05:43:57.996Z,27.87
2022-09-15T05:44:59.646Z,28.00
2022-09-15T05:46:02.530Z,28.11
2022-09-15T05:47:04.663Z,28.20
2022-09-15T05:48:06.362Z,28.32
2022-09-15T05:49:08.880Z,28.44
2022-09-15T05:50:11.294Z,28.60
2022-09-15T05:51:14.557Z,28.76
2022-09-15T05:52:16.238Z,28.91
2022-09-15T05:53:18.471Z,29.04
2022-09-15T05:54:20.321Z,29.15
2022-09-15T05:55:22.486Z,29.27
2022-09-15T05:56:24.773Z,29.32
2022-09-15T05:57:27.308Z,29.49
2022-09-15T05:58:30.632Z,29.42
2022-09-15T05:59:33.482Z,29.46
2022-09-15T06:00:35.428Z,29.51
2022-09-15T06:01:37.123Z,29.56
2022-09-15T06:02:38.888Z,29.79
2022-09-15T06:03:41.070Z,29.92
2022-09-15T06:04:42.757Z,30.06
2022-09-15T06:05:44.501Z,30.11
2022-09-15T06:06:46.489Z,30.22
2022-09-15T06:07:48.171Z,30.35
2022-09-15T06:08:58.085Z,30.53
2022-09-15T06:10:00.361Z,30.74
2022-09-15T06:11:07.482Z,30.80
2022-09-15T06:12:09.133Z,30.90
2022-09-15T06:13:10.825Z,31.05
2022-09-15T06:14:13.653Z,31.13
2022-09-15T06:15:15.469Z,31.19
2022-09-15T06:16:22.844Z,31.36
2022-09-15T06:17:24.549Z,31.48
2022-09-15T06:18:26.212Z,31.62
2022-09-15T06:19:27.893Z,31.81
2022-09-15T06:20:29.547Z,31.87
2022-09-15T06:21:32.593Z,31.92
2022-09-15T06:22:34.491Z,32.02
2022-09-15T06:23:37.155Z,32.10
2022-09-15T06:24:38.999Z,32.13
2022-09-15T06:25:40.648Z,32.22
2022-09-15T06:26:42.357Z,32.20
2022-09-15T06:27:44.149Z,32.14
2022-09-15T06:28:51.894Z,32.10
2022-09-15T06:29:53.582Z,32.02
2022-09-15T06:30:55.274Z,31.77
2022-09-15T06:32:02.701Z,31.69
2022-09-15T06:33:08.136Z,31.81
2022-09-15T06:34:29.588Z,31.89
2022-09-15T06:35:31.289Z,32.00
2022-09-15T06:36:33.506Z,32.03
2022-09-15T06:37:35.246Z,32.09
2022-09-15T06:38:38.379Z,32.19
2022-09-15T06:39:40.280Z,32.48
2022-09-15T06:40:41.941Z,32.62
2022-09-15T06:42:01.332Z,32.88
2022-09-15T06:43:04.379Z,32.98
2022-09-15T06:44:06.071Z,32.92
2022-09-15T06:45:08.236Z,33.17
2022-09-15T06:46:11.183Z,33.25
2022-09-15T06:47:15.795Z,33.26
2022-09-15T06:48:24.559Z,33.38
2022-09-15T06:49:27.090Z,33.51
2022-09-15T06:50:29.259Z,33.71
2022-09-15T06:51:35.638Z,33.92
2022-09-15T06:52:37.319Z,34.04
2022-09-15T06:53:39.984Z,34.04
2022-09-15T06:54:41.641Z,34.14
2022-09-15T06:55:43.296Z,34.04
2022-09-15T06:56:45.437Z,33.89
2022-09-15T06:57:47.334Z,33.73
2022-09-15T06:58:49.476Z,33.52
2022-09-15T06:59:51.351Z,33.49
2022-09-15T07:00:53.047Z,33.67
2022-09-15T07:01:55.390Z,33.69
2022-09-15T07:02:57.272Z,33.92
2022-09-15T07:04:01.211Z,34.15
2022-09-15T07:05:03.624Z,34.22
2022-09-15T07:06:06.924Z,34.42
2022-09-15T07:07:08.708Z,34.56
2022-09-15T07:08:10.386Z,34.65
2022-09-15T07:09:12.672Z,34.79
2022-09-15T07:10:14.365Z,34.81
2022-09-15T07:11:17.493Z,34.87
2022-09-15T07:12:19.127Z,35.17
2022-09-15T07:13:21.698Z,35.32
2022-09-15T07:14:23.381Z,35.44
2022-09-15T07:15:26.093Z,35.68
2022-09-15T07:16:28.368Z,35.94
2022-09-15T07:17:30.342Z,36.07
2022-09-15T07:18:32.834Z,36.04
2022-09-15T07:19:34.771Z,35.89
2022-09-15T07:20:39.151Z,35.56
2022-09-15T07:21:41.055Z,35.44
2022-09-15T07:22:44.264Z,35.51
2022-09-15T07:23:47.393Z,35.57
2022-09-15T07:24:49.126Z,35.52
2022-09-15T07:25:50.822Z,35.44
2022-09-15T07:26:52.544Z,35.33
2022-09-15T07:27:54.180Z,35.63
2022-09-15T07:29:04.823Z,35.59
2022-09-15T07:30:08.721Z,35.68
2022-09-15T07:31:13.504Z,35.77
2022-09-15T07:32:15.276Z,35.84
2022-09-15T07:33:17.002Z,35.86
2022-09-15T07:34:18.812Z,35.84
2022-09-15T07:35:21.902Z,35.76
2022-09-15T07:36:23.578Z,35.87
2022-09-15T07:37:25.288Z,35.85
2022-09-15T07:38:27.238Z,35.89
2022-09-15T07:39:29.355Z,35.62
2022-09-15T07:40:32.299Z,35.32
2022-09-15T07:41:34.351Z,34.96
2022-09-15T07:42:36.352Z,35.13
2022-09-15T07:43:38.850Z,35.27
2022-09-15T07:44:40.758Z,35.03
2022-09-15T07:45:42.987Z,34.71
2022-09-15T07:46:44.938Z,34.85
2022-09-15T07:47:46.667Z,35.09
2022-09-15T07:48:53.238Z,35.09
2022-09-15T07:49:55.476Z,35.32
2022-09-15T07:50:57.293Z,35.65
2022-09-15T07:51:58.977Z,35.96
2022-09-15T07:53:00.934Z,36.38
2022-09-15T07:54:02.733Z,36.30
2022-09-15T07:55:04.969Z,36.24
2022-09-15T07:56:07.191Z,36.55
2022-09-15T07:57:08.890Z,36.72
2022-09-15T07:58:10.636Z,36.90
2022-09-15T07:59:12.647Z,36.73
2022-09-15T08:00:15.692Z,36.68
2022-09-15T08:01:18.942Z,37.01
2022-09-15T08:02:21.641Z,37.04
2022-09-15T08:03:23.332Z,37.28
2022-09-15T08:04:25.305Z,37.41
2022-09-15T08:05:28.482Z,37.56
2022-09-15T08:06:30.429Z,37.57
2022-09-15T08:07:32.085Z,38.04
2022-09-15T08:08:33.764Z,38.13
2022-09-15T08:09:37.446Z,38.15
2022-09-15T08:10:41.335Z,38.10
2022-09-15T08:11:43.950Z,37.84
2022-09-15T08:12:45.654Z,37.65
2022-09-15T08:13:52.517Z,37.77
2022-09-15T08:14:54.484Z,38.01
2022-09-15T08:15:56.219Z,38.11
2022-09-15T08:17:01.217Z,38.24
2022-09-15T08:18:03.816Z,38.29
2022-09-15T08:19:05.515Z,38.18
2022-09-15T08:20:07.523Z,37.68
2022-09-15T08:21:12.479Z,37.35
2022-09-15T08:22:14.203Z,37.34
2022-09-15T08:23:15.912Z,37.44
2022-09-15T08:24:17.900Z,37.51
2022-09-15T08:25:19.897Z,37.60
2022-09-15T08:26:22.386Z,37.39
2022-09-15T08:27:24.078Z,37.42
2022-09-15T08:28:26.787Z,37.51
2022-09-15T08:29:29.376Z,37.51
2022-09-15T08:30:31.341Z,37.65
2022-09-15T08:31:33.383Z,37.82
2022-09-15T08:32:35.139Z,38.04
2022-09-15T08:33:38.965Z,38.28
2022-09-15T08:34:43.561Z,38.49
2022-09-15T08:35:45.240Z,38.64
2022-09-15T08:36:46.934Z,38.67
2022-09-15T08:37:48.877Z,38.75
2022-09-15T08:38:50.571Z,38.90
2022-09-15T08:39:52.477Z,38.80
2022-09-15T08:41:00.606Z,38.75
2022-09-15T08:42:03.073Z,38.64
2022-09-15T08:43:21.702Z,38.74
2022-09-15T08:44:32.063Z,38.88
2022-09-15T08:46:00.725Z,38.93
2022-09-15T08:47:08.328Z,38.94
2022-09-15T08:48:15.917Z,38.82
2022-09-15T08:49:47.447Z,38.67
2022-09-15T08:50:50.382Z,38.79
2022-09-15T08:51:53.317Z,38.86
2022-09-15T08:53:06.966Z,38.84
2022-09-15T08:54:18.734Z,38.99
2022-09-15T08:55:29.361Z,39.10
2022-09-15T08:56:31.352Z,39.37
2022-09-15T08:57:33.114Z,39.34
2022-09-15T08:58:37.871Z,39.26
2022-09-15T08:59:40.123Z,39.16
2022-09-15T09:00:42.729Z,39.17
2022-09-15T09:01:44.520Z,39.37
2022-09-15T09:03:15.708Z,39.35
2022-09-15T09:04:47.917Z,39.39
2022-09-15T09:06:44.982Z,39.60
2022-09-15T09:07:59.862Z,39.80
2022-09-15T09:09:07.184Z,39.80
2022-09-15T09:10:36.274Z,39.75
2022-09-15T09:12:03.670Z,39.83
2022-09-15T09:13:44.158Z,40.06
2022-09-15T09:15:10.875Z,40.24
2022-09-15T09:16:36.356Z,40.31
2022-09-15T09:17:38.186Z,40.41
2022-09-15T09:18:48.796Z,40.49
2022-09-15T09:19:57.910Z,40.52
2022-09-15T09:21:05.618Z,40.57
2022-09-15T09:22:15.841Z,40.56
2022-09-15T09:23:24.156Z,40.38
2022-09-15T09:24:42.663Z,40.29
2022-09-15T09:25:45.149Z,40.18
2022-09-15T09:26:51.346Z,40.15
2022-09-15T09:27:54.245Z,40.13
2022-09-15T09:28:59.749Z,40.24
2022-09-15T09:30:04.026Z,40.48
2022-09-15T09:31:08.403Z,40.62
2022-09-15T09:32:24.637Z,40.71
2022-09-15T09:33:38.801Z,40.84
2022-09-15T09:34:54.438Z,40.74
2022-09-15T09:35:59.980Z,40.34
2022-09-15T09:37:10.807Z,40.35
2022-09-15T09:38:31.478Z,40.40
2022-09-15T09:39:33.575Z,40.61
2022-09-15T09:40:41.253Z,40.74
2022-09-15T09:41:43.926Z,40.91
2022-09-15T09:42:46.060Z,41.01
2022-09-15T09:43:49.393Z,41.13
2022-09-15T09:44:51.619Z,41.26
2022-09-15T09:45:53.785Z,41.29
2022-09-15T09:46:55.906Z,41.30
2022-09-15T09:48:15.139Z,41.52
2022-09-15T09:49:24.472Z,41.17
2022-09-15T09:50:32.546Z,41.39
2022-09-15T09:51:34.233Z,41.53
2022-09-15T09:52:38.386Z,41.63
2022-09-15T09:53:40.213Z,41.55
2022-09-15T09:54:42.441Z,41.31
2022-09-15T09:55:45.977Z,41.31
2022-09-15T09:56:52.497Z,41.29
2022-09-15T09:58:11.098Z,41.29
2022-09-15T09:59:45.121Z,41.57
2022-09-15T10:00:47.487Z,41.61
2022-09-15T10:02:11.412Z,41.67
2022-09-15T10:03:17.046Z,41.76
2022-09-15T10:04:19.644Z,41.72
2022-09-15T10:05:21.605Z,41.71
2022-09-15T10:06:23.314Z,41.89
2022-09-15T10:07:26.826Z,41.99
2022-09-15T10:08:28.597Z,41.99
2022-09-15T10:09:33.378Z,41.90
2022-09-15T10:10:35.758Z,41.43
2022-09-15T10:11:59.170Z,41.78
2022-09-15T10:13:03.615Z,41.87
2022-09-15T10:14:05.556Z,41.55
2022-09-15T10:15:21.201Z,41.43
2022-09-15T10:16:23.112Z,41.49
2022-09-15T10:17:47.635Z,41.52
2022-09-15T10:18:54.175Z,41.39
2022-09-15T10:19:58.492Z,41.27
2022-09-15T10:21:03.319Z,41.12
2022-09-15T10:22:05.210Z,40.87
2022-09-15T10:23:25.070Z,40.70
2022-09-15T10:24:34.608Z,40.68
2022-09-15T10:25:58.612Z,40.74
2022-09-15T10:27:20.288Z,40.89
2022-09-15T10:28:25.948Z,40.87
2022-09-15T10:29:36.737Z,41.01
2022-09-15T10:30:38.775Z,41.27
2022-09-15T10:31:41.792Z,41.37
2022-09-15T10:32:43.625Z,41.11
2022-09-15T10:33:49.256Z,41.01
2022-09-15T10:35:03.307Z,41.14
2022-09-15T10:36:07.190Z,41.25
2022-09-15T10:37:18.809Z,41.22
2022-09-15T10:38:31.442Z,41.14
2022-09-15T10:39:39.329Z,41.26
2022-09-15T10:41:03.540Z,41.39
2022-09-15T10:42:21.566Z,41.44
2022-09-15T10:43:35.270Z,41.45
2022-09-15T10:44:36.938Z,41.38
2022-09-15T10:45:40.315Z,41.46
2022-09-15T10:46:42.021Z,41.52
2022-09-15T10:47:57.649Z,41.37
2022-09-15T10:49:37.656Z,41.21
2022-09-15T10:50:51.392Z,41.00
2022-09-15T10:52:37.366Z,40.95
2022-09-15T10:54:05.131Z,41.02
2022-09-15T10:55:42.553Z,40.91
2022-09-15T10:56:52.373Z,40.96
2022-09-15T10:58:06.344Z,40.91
2022-09-15T10:59:33.948Z,40.52
2022-09-15T11:01:17.952Z,40.65
2022-09-15T11:02:36.319Z,40.90
2022-09-15T11:04:26.410Z,40.97
2022-09-15T11:05:46.701Z,41.03
2022-09-15T11:06:57.710Z,41.14
2022-09-15T11:08:17.004Z,41.18
2022-09-15T11:09:30.456Z,40.95
2022-09-15T11:10:45.933Z,40.84
2022-09-15T11:12:06.127Z,40.77
2022-09-15T11:13:14.840Z,40.63
2022-09-15T11:14:38.508Z,40.54
2022-09-15T11:15:59.614Z,40.57
2022-09-15T11:17:15.946Z,40.69
2022-09-15T11:18:39.115Z,40.79
2022-09-15T11:20:07.854Z,40.62
2022-09-15T11:21:25.657Z,40.51
2022-09-15T11:22:35.802Z,40.58
2022-09-15T11:23:47.001Z,40.68
2022-09-15T11:25:10.728Z,40.52
2022-09-15T11:26:30.595Z,40.33
2022-09-15T11:27:40.120Z,40.13
2022-09-15T11:29:00.739Z,39.79
2022-09-15T11:30:18.976Z,39.71
2022-09-15T11:31:27.470Z,39.70
2022-09-15T11:32:41.637Z,39.68
2022-09-15T11:33:53.226Z,39.95
2022-09-15T11:35:16.505Z,39.68
2022-09-15T11:36:40.783Z,39.55
2022-09-15T11:37:50.824Z,39.60
2022-09-15T11:38:59.684Z,39.62
2022-09-15T11:40:16.249Z,39.38
2022-09-15T11:41:47.426Z,39.14
2022-09-15T11:42:51.901Z,38.96
2022-09-15T11:44:21.086Z,38.99
2022-09-15T11:45:28.146Z,38.91
2022-09-15T11:46:57.570Z,38.84
2022-09-15T11:48:18.700Z,38.94
2022-09-15T11:49:25.117Z,39.09
2022-09-15T11:50:34.394Z,39.04
2022-09-15T11:51:50.856Z,39.08
2022-09-15T11:52:55.781Z,38.69
2022-09-15T11:54:13.790Z,38.80
2022-09-15T11:55:26.593Z,38.66
2022-09-15T11:56:36.696Z,38.58
2022-09-15T11:58:08.235Z,38.43
2022-09-15T11:59:20.094Z,38.32
2022-09-15T12:00:21.752Z,38.33
2022-09-15T12:01:30.064Z,38.33
2022-09-15T12:02:53.662Z,38.08
2022-09-15T12:04:02.862Z,38.01
2022-09-15T12:05:17.695Z,38.07
2022-09-15T12:06:47.481Z,38.09
2022-09-15T12:07:58.449Z,37.93
2022-09-15T12:09:03.968Z,37.51
2022-09-15T12:10:14.836Z,37.29
2022-09-15T12:11:22.481Z,37.17
2022-09-15T12:12:28.037Z,37.25
2022-09-15T12:13:31.877Z,37.15
2022-09-15T12:14:45.446Z,37.15
2022-09-15T12:15:48.705Z,37.11
2022-09-15T12:16:51.917Z,36.89
2022-09-15T12:18:46.754Z,36.70
2022-09-15T12:20:00.534Z,36.72
2022-09-15T12:21:12.758Z,36.67
2022-09-15T12:22:26.673Z,36.46
2022-09-15T12:23:41.323Z,36.17
2022-09-15T12:24:53.412Z,36.08
2022-09-15T12:26:09.171Z,36.22
2022-09-15T12:27:17.137Z,36.19
2022-09-15T12:28:21.696Z,36.20
2022-09-15T12:29:26.600Z,36.17
2022-09-15T12:30:39.278Z,36.20
2022-09-15T12:31:41.739Z,36.13
2022-09-15T12:32:43.440Z,36.15
2022-09-15T12:34:15.914Z,36.36
2022-09-15T12:35:17.781Z,36.49
2022-09-15T12:36:37.032Z,36.61
2022-09-15T12:37:53.419Z,36.54
2022-09-15T12:38:55.554Z,36.44
2022-09-15T12:39:58.388Z,36.34
2022-09-15T12:41:00.566Z,36.30
2022-09-15T12:42:13.345Z,36.12
2022-09-15T12:43:23.108Z,36.00
2022-09-15T12:44:40.724Z,35.90
2022-09-15T12:45:53.701Z,35.85
2022-09-15T12:46:58.464Z,35.82
2022-09-15T12:48:07.916Z,35.80
2022-09-15T12:49:17.894Z,35.62
2022-09-15T12:50:19.624Z,35.61
2022-09-15T12:51:24.446Z,35.61
2022-09-15T12:52:26.823Z,35.64
2022-09-15T12:54:45.428Z,35.75
2022-09-15T12:55:53.403Z,35.69
2022-09-15T12:56:57.172Z,35.78
2022-09-15T12:58:08.627Z,35.85
2022-09-15T12:59:15.181Z,35.89
2022-09-15T13:00:29.521Z,35.96
2022-09-15T13:01:37.989Z,35.99
2022-09-15T13:02:48.100Z,36.15
2022-09-15T13:03:49.789Z,36.22
2022-09-15T13:04:57.725Z,36.27
2022-09-15T13:06:15.115Z,36.30
2022-09-15T13:07:17.236Z,36.33
2022-09-15T13:08:24.640Z,36.38
2022-09-15T13:09:28.643Z,36.36
2022-09-15T13:10:37.213Z,36.36
2022-09-15T13:12:59.764Z,36.20
2022-09-15T13:14:04.127Z,36.24
2022-09-15T13:15:13.929Z,36.26
2022-09-15T13:16:22.184Z,36.31
2022-09-15T13:17:25.893Z,36.30
2022-09-15T13:18:32.522Z,36.32
2022-09-15T13:19:36.070Z,36.37
2022-09-15T13:20:44.271Z,36.25
2022-09-15T13:22:04.890Z,36.15
2022-09-15T13:23:10.233Z,36.18
2022-09-15T13:24:20.319Z,36.10
2022-09-15T13:25:28.394Z,36.19
2022-09-15T13:26:32.122Z,36.16
2022-09-15T13:27:53.660Z,36.17
2022-09-15T13:28:57.707Z,36.23
2022-09-15T13:30:14.792Z,36.23
2022-09-15T13:31:45.094Z,36.24
2022-09-15T13:32:56.310Z,36.12
2022-09-15T13:35:57.036Z,36.21
2022-09-15T13:38:52.439Z,36.32
2022-09-15T13:40:09.734Z,36.41
2022-09-15T13:41:31.213Z,36.27
2022-09-15T13:42:49.494Z,36.24
2022-09-15T13:44:25.887Z,36.22
2022-09-15T13:46:00.223Z,36.26
2022-09-15T13:47:23.858Z,36.31
2022-09-15T13:48:34.902Z,36.33
2022-09-15T13:49:55.859Z,36.38
2022-09-15T13:51:00.623Z,36.40
2022-09-15T13:52:23.448Z,36.27
2022-09-15T13:53:53.547Z,36.15
2022-09-15T13:55:29.144Z,36.17
2022-09-15T13:56:39.053Z,36.26
2022-09-15T13:59:14.158Z,36.32
2022-09-15T14:00:29.980Z,36.35
2022-09-15T14:01:35.948Z,36.36
2022-09-15T14:02:37.808Z,36.56
2022-09-15T14:03:48.688Z,36.70
2022-09-15T14:04:51.994Z,36.74
2022-09-15T14:05:55.631Z,36.74
2022-09-15T14:07:01.449Z,36.74
2022-09-15T14:08:15.163Z,36.85
2022-09-15T14:09:21.694Z,36.89
2022-09-15T14:10:27.261Z,36.84
2022-09-15T14:11:31.262Z,36.87
2022-09-15T14:12:36.928Z,36.99
2022-09-15T14:13:44.898Z,36.98
2022-09-15T14:14:55.790Z,36.66
2022-09-15T14:16:19.300Z,36.69
2022-09-15T14:17:24.170Z,36.64
2022-09-15T14:18:26.314Z,36.47
2022-09-15T14:19:35.532Z,36.66
2022-09-15T14:20:37.294Z,36.69
2022-09-15T14:21:52.846Z,36.68
2022-09-15T14:22:57.732Z,36.76
2022-09-15T14:24:17.304Z,36.70
2022-09-15T14:25:20.384Z,36.71
2022-09-15T14:26:28.926Z,36.74
2022-09-15T14:27:36.167Z,36.80
2022-09-15T14:28:37.840Z,36.70
2022-09-15T14:29:41.507Z,36.68
2022-09-15T14:30:47.970Z,36.60
2022-09-15T14:31:50.176Z,36.48
2022-09-15T14:32:58.173Z,36.55
2022-09-15T14:34:01.206Z,36.63
2022-09-15T14:35:09.526Z,36.55
2022-09-15T14:36:22.706Z,36.42
2022-09-15T14:37:29.094Z,36.41